Aeroporto :
LOGIN :

Iscrizione | Disclaimer

   EN    FR    IT 

 










Sommario :    VFR   VFR Marginale   IFR   IFR Intensivo   IFR Molto Intensivo
Visibilità : 
Base nubi : 
>= 8 km
>= 3000ft
5 / 8 km
1000 / 3000 ft
1500m / 5 km
500 / 1000 ft
800 / 1500m
200 / 500 ft
< 800m
< 200 ft
Simboli :   Temporali  Nebbia  Neve Forte  Precipitazioni Forti  Vento > 20 kt
SIGMETs :   Varie  Temporali  Ghiacco  Turbolenza  Onda orograficha  Ceneri Vulcaniche







- Altitudine del aeroporto : 913 ft
- Carte del aeroporto


LFSX - Luxeuil

ULTIMO METAR :
  • 150600Z AUTO 00000KT 7000 OVC029 M02/M03 Q1023 TEMPO 0300 FZFG

METARs OBSOLETI :
  • 150530Z AUTO 00000KT 7000 OVC028 M02/M03 Q1022 TEMPO 0300 FZFG
  • 150500Z AUTO 06001KT 7000 OVC028 M02/M03 Q1023 TEMPO 0300 FZFG
  • 150430Z AUTO 00000KT 7000 OVC029 M02/M04 Q1023 TEMPO 0300 FZFG
  • 150400Z AUTO 09002KT 7000 OVC029 M02/M04 Q1023 TEMPO 0300 FZFG
  • 150330Z AUTO 00000KT 7000 OVC031 M02/M04 Q1023 TEMPO 0300 FZFG

TAF TAF LFSX
Valido dal 15 a 03 ore il 16 a 03 ore UTC


150200Z 1503/1603 VRB02KT 6000 OVC030
PROB40 1503/1508 3000 BR
PROB30 1503/1508 0300 FZFG
Nessun NOTAM noto per questo aeroporto.



MetMap, La meteo Aeronautica in un colpo d'occhio ! - Copyright ORBIFLY Dicembre 2007 - Disclaimer

ORBIFLY MET'MAP TEAM :

Programmazione e sviluppo : Alexandra Zaïnal
Concezione e sviluppo : Baudouin d'Aumeries
Co-Programmazione e sviluppo : Marc-Olivier Méhu
Supporto tecnico e logistico : Manuel Goepfert
Aiuto per la traduzione : Arnaldo La Scala

Contatto : metmap@orbifly.com




FONTI E CREDITI :

   NOAA